sensor_id;sensor_type;location;lat;lon;timestamp;temperature;humidity
19172;DHT22;9718;52.200;21.052;2022-08-27T00:01:37;18.70;99.90
19172;DHT22;9718;52.200;21.052;2022-08-27T00:04:05;18.80;99.90
19172;DHT22;9718;52.200;21.052;2022-08-27T00:06:32;18.90;99.90
19172;DHT22;9718;52.200;21.052;2022-08-27T00:08:59;18.90;99.90
19172;DHT22;9718;52.200;21.052;2022-08-27T00:11:26;18.90;99.90
19172;DHT22;9718;52.200;21.052;2022-08-27T00:13:53;18.80;99.90
19172;DHT22;9718;52.200;21.052;2022-08-27T00:16:22;18.70;99.90
19172;DHT22;9718;52.200;21.052;2022-08-27T00:18:52;18.60;99.90
19172;DHT22;9718;52.200;21.052;2022-08-27T00:21:19;18.50;99.90
19172;DHT22;9718;52.200;21.052;2022-08-27T00:23:46;18.50;99.90
19172;DHT22;9718;52.200;21.052;2022-08-27T00:26:14;18.40;99.90
19172;DHT22;9718;52.200;21.052;2022-08-27T00:28:42;18.30;99.90
19172;DHT22;9718;52.200;21.052;2022-08-27T00:31:10;18.30;99.90
19172;DHT22;9718;52.200;21.052;2022-08-27T00:33:39;18.20;99.90
19172;DHT22;9718;52.200;21.052;2022-08-27T00:36:06;18.20;99.90
19172;DHT22;9718;52.200;21.052;2022-08-27T00:38:34;18.20;99.90
19172;DHT22;9718;52.200;21.052;2022-08-27T00:41:01;18.20;99.90
19172;DHT22;9718;52.200;21.052;2022-08-27T00:43:30;18.30;99.90
19172;DHT22;9718;52.200;21.052;2022-08-27T00:46:04;18.20;99.90
19172;DHT22;9718;52.200;21.052;2022-08-27T00:48:34;18.20;99.90
19172;DHT22;9718;52.200;21.052;2022-08-27T00:51:02;18.10;99.90
19172;DHT22;9718;52.200;21.052;2022-08-27T00:53:32;18.10;99.90
19172;DHT22;9718;52.200;21.052;2022-08-27T00:56:19;18.10;99.90
19172;DHT22;9718;52.200;21.052;2022-08-27T00:58:50;18.00;99.90
19172;DHT22;9718;52.200;21.052;2022-08-27T01:01:22;18.00;99.90
19172;DHT22;9718;52.200;21.052;2022-08-27T01:03:54;18.00;99.90
19172;DHT22;9718;52.200;21.052;2022-08-27T01:06:24;18.00;99.90
19172;DHT22;9718;52.200;21.052;2022-08-27T01:08:57;18.00;99.90
19172;DHT22;9718;52.200;21.052;2022-08-27T01:11:27;18.00;99.90
19172;DHT22;9718;52.200;21.052;2022-08-27T01:13:54;18.00;99.90
19172;DHT22;9718;52.200;21.052;2022-08-27T01:16:30;18.00;99.90
19172;DHT22;9718;52.200;21.052;2022-08-27T01:18:58;18.10;99.90
19172;DHT22;9718;52.200;21.052;2022-08-27T01:27:00;18.10;99.90
19172;DHT22;9718;52.200;21.052;2022-08-27T01:29:29;18.10;99.90
19172;DHT22;9718;52.200;21.052;2022-08-27T01:32:04;18.10;99.90
19172;DHT22;9718;52.200;21.052;2022-08-27T01:34:33;18.10;99.90
19172;DHT22;9718;52.200;21.052;2022-08-27T01:37:00;18.00;99.90
19172;DHT22;9718;52.200;21.052;2022-08-27T01:39:27;18.00;99.90
19172;DHT22;9718;52.200;21.052;2022-08-27T01:42:02;17.90;99.90
19172;DHT22;9718;52.200;21.052;2022-08-27T01:44:30;17.90;99.90
19172;DHT22;9718;52.200;21.052;2022-08-27T01:47:06;17.90;99.90
19172;DHT22;9718;52.200;21.052;2022-08-27T01:49:33;17.80;99.90
19172;DHT22;9718;52.200;21.052;2022-08-27T01:52:00;17.80;99.90
19172;DHT22;9718;52.200;21.052;2022-08-27T01:54:29;17.70;99.90
19172;DHT22;9718;52.200;21.052;2022-08-27T01:56:56;17.70;99.90
19172;DHT22;9718;52.200;21.052;2022-08-27T01:59:25;17.60;99.90
19172;DHT22;9718;52.200;21.052;2022-08-27T02:02:07;17.60;99.90
19172;DHT22;9718;52.200;21.052;2022-08-27T02:04:34;17.50;99.90
19172;DHT22;9718;52.200;21.052;2022-08-27T02:07:02;17.50;99.90
19172;DHT22;9718;52.200;21.052;2022-08-27T02:09:30;17.50;99.90
19172;DHT22;9718;52.200;21.052;2022-08-27T02:11:57;17.50;99.90
19172;DHT22;9718;52.200;21.052;2022-08-27T02:14:26;17.50;99.90
19172;DHT22;9718;52.200;21.052;2022-08-27T02:16:54;17.40;99.90
19172;DHT22;9718;52.200;21.052;2022-08-27T02:19:22;17.40;99.90
19172;DHT22;9718;52.200;21.052;2022-08-27T02:21:50;17.30;99.90
19172;DHT22;9718;52.200;21.052;2022-08-27T02:24:17;17.30;99.90
19172;DHT22;9718;52.200;21.052;2022-08-27T02:26:44;17.20;99.90
19172;DHT22;9718;52.200;21.052;2022-08-27T02:29:11;17.20;99.90
19172;DHT22;9718;52.200;21.052;2022-08-27T02:31:38;17.20;99.90
19172;DHT22;9718;52.200;21.052;2022-08-27T02:34:08;17.10;99.90
19172;DHT22;9718;52.200;21.052;2022-08-27T02:36:36;17.10;99.90
19172;DHT22;9718;52.200;21.052;2022-08-27T02:39:05;17.10;99.90
19172;DHT22;9718;52.200;21.052;2022-08-27T02:41:32;17.00;99.90
19172;DHT22;9718;52.200;21.052;2022-08-27T02:43:59;17.00;99.90
19172;DHT22;9718;52.200;21.052;2022-08-27T02:46:27;17.00;99.90
19172;DHT22;9718;52.200;21.052;2022-08-27T02:48:55;16.90;99.90
19172;DHT22;9718;52.200;21.052;2022-08-27T02:51:22;17.00;99.90
19172;DHT22;9718;52.200;21.052;2022-08-27T02:53:49;16.90;99.90
19172;DHT22;9718;52.200;21.052;2022-08-27T02:56:16;16.90;99.90
19172;DHT22;9718;52.200;21.052;2022-08-27T02:58:48;16.90;99.90
19172;DHT22;9718;52.200;21.052;2022-08-27T03:01:15;16.90;99.90
19172;DHT22;9718;52.200;21.052;2022-08-27T03:03:42;16.90;99.90
19172;DHT22;9718;52.200;21.052;2022-08-27T03:06:09;16.80;99.90
19172;DHT22;9718;52.200;21.052;2022-08-27T03:08:36;16.80;99.90
19172;DHT22;9718;52.200;21.052;2022-08-27T03:11:20;16.80;99.90
19172;DHT22;9718;52.200;21.052;2022-08-27T03:13:50;16.80;99.90
19172;DHT22;9718;52.200;21.052;2022-08-27T03:16:17;16.70;99.90
19172;DHT22;9718;52.200;21.052;2022-08-27T03:18:44;16.70;99.90
19172;DHT22;9718;52.200;21.052;2022-08-27T03:21:17;16.70;99.90
19172;DHT22;9718;52.200;21.052;2022-08-27T03:23:45;16.70;99.90
19172;DHT22;9718;52.200;21.052;2022-08-27T03:26:15;16.70;99.90
19172;DHT22;9718;52.200;21.052;2022-08-27T03:28:42;16.60;99.90
19172;DHT22;9718;52.200;21.052;2022-08-27T03:31:18;16.60;99.90
19172;DHT22;9718;52.200;21.052;2022-08-27T03:33:58;16.60;99.90
19172;DHT22;9718;52.200;21.052;2022-08-27T03:36:28;16.50;99.90
19172;DHT22;9718;52.200;21.052;2022-08-27T03:38:57;16.60;99.90
19172;DHT22;9718;52.200;21.052;2022-08-27T03:41:24;16.50;99.90
19172;DHT22;9718;52.200;21.052;2022-08-27T03:44:11;16.50;99.90
19172;DHT22;9718;52.200;21.052;2022-08-27T03:46:48;16.50;99.90
19172;DHT22;9718;52.200;21.052;2022-08-27T03:49:17;16.50;99.90
19172;DHT22;9718;52.200;21.052;2022-08-27T03:51:48;16.50;99.90
19172;DHT22;9718;52.200;21.052;2022-08-27T03:54:15;16.50;99.90
19172;DHT22;9718;52.200;21.052;2022-08-27T03:56:42;16.40;99.90
19172;DHT22;9718;52.200;21.052;2022-08-27T03:59:09;16.50;99.90
19172;DHT22;9718;52.200;21.052;2022-08-27T04:01:36;16.50;99.90
19172;DHT22;9718;52.200;21.052;2022-08-27T04:04:04;16.50;99.90
19172;DHT22;9718;52.200;21.052;2022-08-27T04:06:33;16.60;99.90
19172;DHT22;9718;52.200;21.052;2022-08-27T04:09:01;16.60;99.90
19172;DHT22;9718;52.200;21.052;2022-08-27T04:11:28;16.60;99.90
19172;DHT22;9718;52.200;21.052;2022-08-27T04:13:55;16.70;99.90
19172;DHT22;9718;52.200;21.052;2022-08-27T04:16:22;16.70;99.90
19172;DHT22;9718;52.200;21.052;2022-08-27T04:18:49;16.80;99.90
19172;DHT22;9718;52.200;21.052;2022-08-27T04:21:16;16.90;99.90
19172;DHT22;9718;52.200;21.052;2022-08-27T04:23:43;17.00;99.90
19172;DHT22;9718;52.200;21.052;2022-08-27T04:26:10;17.10;99.90
19172;DHT22;9718;52.200;21.052;2022-08-27T04:28:38;17.20;99.90
19172;DHT22;9718;52.200;21.052;2022-08-27T04:31:06;17.30;99.90
19172;DHT22;9718;52.200;21.052;2022-08-27T04:33:43;17.30;99.90
19172;DHT22;9718;52.200;21.052;2022-08-27T04:36:17;17.40;99.90
19172;DHT22;9718;52.200;21.052;2022-08-27T04:38:44;17.40;99.90
19172;DHT22;9718;52.200;21.052;2022-08-27T04:41:11;17.50;99.90
19172;DHT22;9718;52.200;21.052;2022-08-27T04:43:52;17.60;99.90
19172;DHT22;9718;52.200;21.052;2022-08-27T04:46:21;17.70;99.90
19172;DHT22;9718;52.200;21.052;2022-08-27T04:48:49;17.80;99.90
19172;DHT22;9718;52.200;21.052;2022-08-27T04:51:17;17.90;99.90
19172;DHT22;9718;52.200;21.052;2022-08-27T04:53:46;18.10;99.90
19172;DHT22;9718;52.200;21.052;2022-08-27T04:56:14;18.30;99.90
19172;DHT22;9718;52.200;21.052;2022-08-27T04:58:42;18.40;99.90
19172;DHT22;9718;52.200;21.052;2022-08-27T05:01:15;18.50;99.90
19172;DHT22;9718;52.200;21.052;2022-08-27T05:03:43;18.60;99.90
19172;DHT22;9718;52.200;21.052;2022-08-27T05:06:11;18.70;99.90
19172;DHT22;9718;52.200;21.052;2022-08-27T05:08:38;18.90;99.90
19172;DHT22;9718;52.200;21.052;2022-08-27T05:11:11;19.00;99.90
19172;DHT22;9718;52.200;21.052;2022-08-27T05:13:41;19.20;99.90
19172;DHT22;9718;52.200;21.052;2022-08-27T05:16:11;19.40;99.90
19172;DHT22;9718;52.200;21.052;2022-08-27T05:18:39;19.50;99.90
19172;DHT22;9718;52.200;21.052;2022-08-27T05:21:20;19.70;99.90
19172;DHT22;9718;52.200;21.052;2022-08-27T05:23:48;20.00;99.90
19172;DHT22;9718;52.200;21.052;2022-08-27T05:26:15;20.20;99.90
19172;DHT22;9718;52.200;21.052;2022-08-27T05:28:42;20.40;99.90
19172;DHT22;9718;52.200;21.052;2022-08-27T05:31:11;20.50;99.90
19172;DHT22;9718;52.200;21.052;2022-08-27T05:33:40;20.70;99.90
19172;DHT22;9718;52.200;21.052;2022-08-27T05:36:34;20.80;99.90
19172;DHT22;9718;52.200;21.052;2022-08-27T05:39:03;20.90;99.90
19172;DHT22;9718;52.200;21.052;2022-08-27T05:41:31;21.00;99.90
19172;DHT22;9718;52.200;21.052;2022-08-27T05:44:04;21.00;99.90
19172;DHT22;9718;52.200;21.052;2022-08-27T05:46:52;21.00;99.90
19172;DHT22;9718;52.200;21.052;2022-08-27T05:49:19;21.10;99.90
19172;DHT22;9718;52.200;21.052;2022-08-27T05:51:45;21.30;99.90
19172;DHT22;9718;52.200;21.052;2022-08-27T05:54:13;21.40;99.90
19172;DHT22;9718;52.200;21.052;2022-08-27T05:56:46;21.60;99.90
19172;DHT22;9718;52.200;21.052;2022-08-27T05:59:15;21.70;99.90
19172;DHT22;9718;52.200;21.052;2022-08-27T06:02:01;21.70;99.90
19172;DHT22;9718;52.200;21.052;2022-08-27T06:04:28;22.00;99.90
19172;DHT22;9718;52.200;21.052;2022-08-27T06:06:56;22.10;99.90
19172;DHT22;9718;52.200;21.052;2022-08-27T06:09:26;22.30;99.90
19172;DHT22;9718;52.200;21.052;2022-08-27T06:11:57;22.40;99.90
19172;DHT22;9718;52.200;21.052;2022-08-27T06:14:24;22.60;99.90
19172;DHT22;9718;52.200;21.052;2022-08-27T06:16:52;22.70;99.90
19172;DHT22;9718;52.200;21.052;2022-08-27T06:19:19;22.80;99.90
19172;DHT22;9718;52.200;21.052;2022-08-27T06:21:46;23.00;99.90
19172;DHT22;9718;52.200;21.052;2022-08-27T06:24:34;23.10;99.90
19172;DHT22;9718;52.200;21.052;2022-08-27T06:27:02;23.20;99.90
19172;DHT22;9718;52.200;21.052;2022-08-27T06:29:29;23.40;99.90
19172;DHT22;9718;52.200;21.052;2022-08-27T06:31:56;23.50;99.90
19172;DHT22;9718;52.200;21.052;2022-08-27T06:34:23;23.60;99.90
19172;DHT22;9718;52.200;21.052;2022-08-27T06:36:50;23.70;99.90
19172;DHT22;9718;52.200;21.052;2022-08-27T06:39:17;23.80;99.90
19172;DHT22;9718;52.200;21.052;2022-08-27T06:41:46;23.90;99.90
19172;DHT22;9718;52.200;21.052;2022-08-27T06:44:16;24.00;99.90
19172;DHT22;9718;52.200;21.052;2022-08-27T06:46:43;24.10;99.90
19172;DHT22;9718;52.200;21.052;2022-08-27T06:49:11;24.30;99.90
19172;DHT22;9718;52.200;21.052;2022-08-27T06:51:39;24.40;99.90
19172;DHT22;9718;52.200;21.052;2022-08-27T06:54:10;24.60;99.90
19172;DHT22;9718;52.200;21.052;2022-08-27T06:56:39;24.80;99.90
19172;DHT22;9718;52.200;21.052;2022-08-27T06:59:08;24.90;99.90
19172;DHT22;9718;52.200;21.052;2022-08-27T07:01:40;24.90;99.90
19172;DHT22;9718;52.200;21.052;2022-08-27T07:04:11;25.10;99.90
19172;DHT22;9718;52.200;21.052;2022-08-27T07:06:39;25.10;99.90
19172;DHT22;9718;52.200;21.052;2022-08-27T07:09:07;25.20;99.90
19172;DHT22;9718;52.200;21.052;2022-08-27T07:11:35;25.10;99.90
19172;DHT22;9718;52.200;21.052;2022-08-27T07:14:02;25.10;99.90
19172;DHT22;9718;52.200;21.052;2022-08-27T07:16:30;25.20;99.90
19172;DHT22;9718;52.200;21.052;2022-08-27T07:19:00;25.40;99.90
19172;DHT22;9718;52.200;21.052;2022-08-27T07:21:31;25.60;99.90
19172;DHT22;9718;52.200;21.052;2022-08-27T07:23:59;25.60;99.90
19172;DHT22;9718;52.200;21.052;2022-08-27T07:26:32;25.80;99.90
19172;DHT22;9718;52.200;21.052;2022-08-27T07:29:01;26.10;99.90
19172;DHT22;9718;52.200;21.052;2022-08-27T07:31:28;26.20;99.90
19172;DHT22;9718;52.200;21.052;2022-08-27T07:33:56;26.30;99.90
19172;DHT22;9718;52.200;21.052;2022-08-27T07:36:23;26.30;99.90
19172;DHT22;9718;52.200;21.052;2022-08-27T07:38:51;26.50;99.90
19172;DHT22;9718;52.200;21.052;2022-08-27T07:41:31;26.80;99.90
19172;DHT22;9718;52.200;21.052;2022-08-27T07:43:59;27.10;99.90
19172;DHT22;9718;52.200;21.052;2022-08-27T07:46:45;27.00;99.90
19172;DHT22;9718;52.200;21.052;2022-08-27T07:49:16;27.30;99.90
19172;DHT22;9718;52.200;21.052;2022-08-27T07:51:43;27.60;99.90
19172;DHT22;9718;52.200;21.052;2022-08-27T07:54:11;27.80;99.90
19172;DHT22;9718;52.200;21.052;2022-08-27T07:56:38;28.00;99.90
19172;DHT22;9718;52.200;21.052;2022-08-27T07:59:05;28.00;99.90
19172;DHT22;9718;52.200;21.052;2022-08-27T08:01:32;28.10;99.90
19172;DHT22;9718;52.200;21.052;2022-08-27T08:04:00;28.20;99.90
19172;DHT22;9718;52.200;21.052;2022-08-27T08:06:27;28.40;99.90
19172;DHT22;9718;52.200;21.052;2022-08-27T08:08:54;28.60;99.90
19172;DHT22;9718;52.200;21.052;2022-08-27T08:11:21;28.70;99.90
19172;DHT22;9718;52.200;21.052;2022-08-27T08:13:48;28.70;99.90
19172;DHT22;9718;52.200;21.052;2022-08-27T08:16:15;28.60;99.90
19172;DHT22;9718;52.200;21.052;2022-08-27T08:18:42;28.70;99.90
19172;DHT22;9718;52.200;21.052;2022-08-27T08:21:12;28.70;99.90
19172;DHT22;9718;52.200;21.052;2022-08-27T08:23:40;28.40;99.90
19172;DHT22;9718;52.200;21.052;2022-08-27T08:26:09;28.60;99.90
19172;DHT22;9718;52.200;21.052;2022-08-27T08:28:38;28.90;99.90
19172;DHT22;9718;52.200;21.052;2022-08-27T08:31:05;29.20;99.90
19172;DHT22;9718;52.200;21.052;2022-08-27T08:33:33;29.30;99.90
19172;DHT22;9718;52.200;21.052;2022-08-27T08:36:12;29.40;99.90
19172;DHT22;9718;52.200;21.052;2022-08-27T08:38:40;29.40;99.90
19172;DHT22;9718;52.200;21.052;2022-08-27T08:43:58;29.50;99.90
19172;DHT22;9718;52.200;21.052;2022-08-27T08:47:06;29.20;99.90
19172;DHT22;9718;52.200;21.052;2022-08-27T08:52:35;29.30;99.90
19172;DHT22;9718;52.200;21.052;2022-08-27T08:58:14;29.90;99.90
19172;DHT22;9718;52.200;21.052;2022-08-27T09:00:44;30.00;99.90
19172;DHT22;9718;52.200;21.052;2022-08-27T09:03:13;30.00;99.90
19172;DHT22;9718;52.200;21.052;2022-08-27T09:05:46;30.20;99.90
19172;DHT22;9718;52.200;21.052;2022-08-27T09:08:25;30.40;99.90
19172;DHT22;9718;52.200;21.052;2022-08-27T09:13:57;30.30;99.90
19172;DHT22;9718;52.200;21.052;2022-08-27T09:16:25;30.50;99.90
19172;DHT22;9718;52.200;21.052;2022-08-27T09:18:53;30.60;99.90
19172;DHT22;9718;52.200;21.052;2022-08-27T09:26:39;30.70;99.90
19172;DHT22;9718;52.200;21.052;2022-08-27T09:29:09;30.30;99.90
19172;DHT22;9718;52.200;21.052;2022-08-27T09:34:14;30.30;99.90
19172;DHT22;9718;52.200;21.052;2022-08-27T09:36:59;30.50;99.90
19172;DHT22;9718;52.200;21.052;2022-08-27T09:39:45;30.80;99.90
19172;DHT22;9718;52.200;21.052;2022-08-27T09:42:36;30.90;99.90
19172;DHT22;9718;52.200;21.052;2022-08-27T09:45:14;31.20;99.90
19172;DHT22;9718;52.200;21.052;2022-08-27T09:50:48;31.70;99.90
19172;DHT22;9718;52.200;21.052;2022-08-27T09:53:18;31.90;99.90
19172;DHT22;9718;52.200;21.052;2022-08-27T09:56:19;31.80;99.90
19172;DHT22;9718;52.200;21.052;2022-08-27T10:02:12;32.30;99.90
19172;DHT22;9718;52.200;21.052;2022-08-27T10:04:44;32.40;99.90
19172;DHT22;9718;52.200;21.052;2022-08-27T10:07:36;32.20;99.90
19172;DHT22;9718;52.200;21.052;2022-08-27T10:10:13;32.10;99.90
19172;DHT22;9718;52.200;21.052;2022-08-27T10:15:27;32.40;99.90
19172;DHT22;9718;52.200;21.052;2022-08-27T10:18:11;32.50;99.90
19172;DHT22;9718;52.200;21.052;2022-08-27T10:21:00;32.20;99.90
19172;DHT22;9718;52.200;21.052;2022-08-27T10:26:25;32.10;99.90
19172;DHT22;9718;52.200;21.052;2022-08-27T10:29:23;32.40;99.90
19172;DHT22;9718;52.200;21.052;2022-08-27T10:35:06;32.40;99.90
19172;DHT22;9718;52.200;21.052;2022-08-27T10:40:35;32.50;99.90
19172;DHT22;9718;52.200;21.052;2022-08-27T10:48:28;32.20;99.90
19172;DHT22;9718;52.200;21.052;2022-08-27T10:53:51;32.30;99.90
19172;DHT22;9718;52.200;21.052;2022-08-27T10:56:29;32.50;99.90
19172;DHT22;9718;52.200;21.052;2022-08-27T10:59:23;32.50;99.90
19172;DHT22;9718;52.200;21.052;2022-08-27T11:04:47;32.80;99.90
19172;DHT22;9718;52.200;21.052;2022-08-27T11:07:35;32.80;99.90
19172;DHT22;9718;52.200;21.052;2022-08-27T11:10:20;33.00;99.90
19172;DHT22;9718;52.200;21.052;2022-08-27T11:12:57;32.90;99.90
19172;DHT22;9718;52.200;21.052;2022-08-27T11:15:34;33.00;99.90
19172;DHT22;9718;52.200;21.052;2022-08-27T11:18:14;33.00;99.90
19172;DHT22;9718;52.200;21.052;2022-08-27T11:23:36;33.80;99.90
19172;DHT22;9718;52.200;21.052;2022-08-27T11:26:05;34.10;99.90
19172;DHT22;9718;52.200;21.052;2022-08-27T11:31:34;34.10;98.00
19172;DHT22;9718;52.200;21.052;2022-08-27T11:42:38;34.20;97.40
19172;DHT22;9718;52.200;21.052;2022-08-27T11:45:15;34.20;96.10
19172;DHT22;9718;52.200;21.052;2022-08-27T11:51:00;33.90;98.40
19172;DHT22;9718;52.200;21.052;2022-08-27T11:53:40;34.30;98.00
19172;DHT22;9718;52.200;21.052;2022-08-27T12:01:56;34.20;98.30
19172;DHT22;9718;52.200;21.052;2022-08-27T12:04:32;34.60;96.50
19172;DHT22;9718;52.200;21.052;2022-08-27T12:07:23;34.80;96.00
19172;DHT22;9718;52.200;21.052;2022-08-27T12:32:03;35.10;93.80
19172;DHT22;9718;52.200;21.052;2022-08-27T12:34:42;35.20;95.40
19172;DHT22;9718;52.200;21.052;2022-08-27T12:37:10;35.30;94.60
19172;DHT22;9718;52.200;21.052;2022-08-27T12:39:41;35.50;94.10
19172;DHT22;9718;52.200;21.052;2022-08-27T12:42:14;35.30;93.00
19172;DHT22;9718;52.200;21.052;2022-08-27T12:44:44;35.20;92.90
19172;DHT22;9718;52.200;21.052;2022-08-27T12:47:12;35.10;93.80
19172;DHT22;9718;52.200;21.052;2022-08-27T12:49:56;35.30;92.80
19172;DHT22;9718;52.200;21.052;2022-08-27T13:01:29;34.40;91.60
19172;DHT22;9718;52.200;21.052;2022-08-27T13:03:58;33.80;92.40
19172;DHT22;9718;52.200;21.052;2022-08-27T13:06:35;34.10;93.90
19172;DHT22;9718;52.200;21.052;2022-08-27T13:09:05;34.20;92.20
19172;DHT22;9718;52.200;21.052;2022-08-27T13:11:42;34.20;91.60
19172;DHT22;9718;52.200;21.052;2022-08-27T13:14:39;34.40;91.80
19172;DHT22;9718;52.200;21.052;2022-08-27T13:19:49;34.30;91.60
19172;DHT22;9718;52.200;21.052;2022-08-27T13:22:51;34.20;91.70
19172;DHT22;9718;52.200;21.052;2022-08-27T13:25:27;34.50;90.30
19172;DHT22;9718;52.200;21.052;2022-08-27T13:27:59;34.80;90.90
19172;DHT22;9718;52.200;21.052;2022-08-27T13:30:36;34.80;89.70
19172;DHT22;9718;52.200;21.052;2022-08-27T13:33:05;34.50;88.40
19172;DHT22;9718;52.200;21.052;2022-08-27T13:35:33;34.60;91.00
19172;DHT22;9718;52.200;21.052;2022-08-27T13:38:01;34.60;90.70
19172;DHT22;9718;52.200;21.052;2022-08-27T13:40:34;34.40;90.00
19172;DHT22;9718;52.200;21.052;2022-08-27T13:43:10;34.00;87.60
19172;DHT22;9718;52.200;21.052;2022-08-27T13:45:39;33.90;86.80
19172;DHT22;9718;52.200;21.052;2022-08-27T13:48:08;33.90;88.90
19172;DHT22;9718;52.200;21.052;2022-08-27T13:50:46;34.00;90.00
19172;DHT22;9718;52.200;21.052;2022-08-27T13:53:19;34.00;90.00
19172;DHT22;9718;52.200;21.052;2022-08-27T13:56:06;33.60;87.50
19172;DHT22;9718;52.200;21.052;2022-08-27T13:58:34;33.20;87.40
19172;DHT22;9718;52.200;21.052;2022-08-27T14:01:14;33.10;89.30
19172;DHT22;9718;52.200;21.052;2022-08-27T14:03:48;32.90;87.80
19172;DHT22;9718;52.200;21.052;2022-08-27T14:06:40;33.10;87.30
19172;DHT22;9718;52.200;21.052;2022-08-27T14:09:20;33.40;89.10
19172;DHT22;9718;52.200;21.052;2022-08-27T14:11:48;33.60;89.20
19172;DHT22;9718;52.200;21.052;2022-08-27T14:14:24;33.60;87.60
19172;DHT22;9718;52.200;21.052;2022-08-27T14:16:59;33.80;88.10
19172;DHT22;9718;52.200;21.052;2022-08-27T14:19:29;33.90;86.30
19172;DHT22;9718;52.200;21.052;2022-08-27T14:22:02;33.90;90.20
19172;DHT22;9718;52.200;21.052;2022-08-27T14:24:29;33.70;87.70
19172;DHT22;9718;52.200;21.052;2022-08-27T14:27:04;33.40;85.30
19172;DHT22;9718;52.200;21.052;2022-08-27T14:29:31;33.10;85.40
19172;DHT22;9718;52.200;21.052;2022-08-27T14:31:58;33.00;85.20
19172;DHT22;9718;52.200;21.052;2022-08-27T14:34:25;33.10;85.50
19172;DHT22;9718;52.200;21.052;2022-08-27T14:36:52;33.20;88.80
19172;DHT22;9718;52.200;21.052;2022-08-27T14:39:20;33.30;87.60
19172;DHT22;9718;52.200;21.052;2022-08-27T14:41:53;33.20;86.30
19172;DHT22;9718;52.200;21.052;2022-08-27T14:44:21;33.30;88.60
19172;DHT22;9718;52.200;21.052;2022-08-27T14:46:48;33.20;85.20
19172;DHT22;9718;52.200;21.052;2022-08-27T14:49:30;32.90;83.30
19172;DHT22;9718;52.200;21.052;2022-08-27T14:52:02;32.90;87.20
19172;DHT22;9718;52.200;21.052;2022-08-27T14:54:30;33.00;85.70
19172;DHT22;9718;52.200;21.052;2022-08-27T14:57:03;32.90;85.30
19172;DHT22;9718;52.200;21.052;2022-08-27T14:59:32;32.70;85.30
19172;DHT22;9718;52.200;21.052;2022-08-27T15:02:00;32.60;88.20
19172;DHT22;9718;52.200;21.052;2022-08-27T15:04:28;32.50;86.10
19172;DHT22;9718;52.200;21.052;2022-08-27T15:06:56;32.50;88.30
19172;DHT22;9718;52.200;21.052;2022-08-27T15:09:23;32.50;89.00
19172;DHT22;9718;52.200;21.052;2022-08-27T15:11:50;32.40;89.20
19172;DHT22;9718;52.200;21.052;2022-08-27T15:14:28;32.20;88.60
19172;DHT22;9718;52.200;21.052;2022-08-27T15:16:55;32.00;90.60
19172;DHT22;9718;52.200;21.052;2022-08-27T15:19:24;31.90;90.40
19172;DHT22;9718;52.200;21.052;2022-08-27T15:21:53;31.80;90.10
19172;DHT22;9718;52.200;21.052;2022-08-27T15:24:25;31.70;88.70
19172;DHT22;9718;52.200;21.052;2022-08-27T15:26:54;31.80;88.50
19172;DHT22;9718;52.200;21.052;2022-08-27T15:29:25;31.70;88.80
19172;DHT22;9718;52.200;21.052;2022-08-27T15:31:53;31.60;88.60
19172;DHT22;9718;52.200;21.052;2022-08-27T15:34:20;31.50;88.90
19172;DHT22;9718;52.200;21.052;2022-08-27T15:36:47;31.30;87.90
19172;DHT22;9718;52.200;21.052;2022-08-27T15:39:15;31.10;87.90
19172;DHT22;9718;52.200;21.052;2022-08-27T15:41:42;31.00;89.60
19172;DHT22;9718;52.200;21.052;2022-08-27T15:44:30;30.90;89.60
19172;DHT22;9718;52.200;21.052;2022-08-27T15:46:57;30.70;89.50
19172;DHT22;9718;52.200;21.052;2022-08-27T15:49:24;30.70;90.40
19172;DHT22;9718;52.200;21.052;2022-08-27T15:51:51;30.60;90.60
19172;DHT22;9718;52.200;21.052;2022-08-27T15:54:18;30.50;90.80
19172;DHT22;9718;52.200;21.052;2022-08-27T15:56:45;30.40;91.00
19172;DHT22;9718;52.200;21.052;2022-08-27T15:59:12;30.20;91.10
19172;DHT22;9718;52.200;21.052;2022-08-27T16:01:39;30.10;91.80
19172;DHT22;9718;52.200;21.052;2022-08-27T16:04:06;29.90;92.10
19172;DHT22;9718;52.200;21.052;2022-08-27T16:06:33;29.80;92.50
19172;DHT22;9718;52.200;21.052;2022-08-27T16:09:01;29.70;92.60
19172;DHT22;9718;52.200;21.052;2022-08-27T16:11:28;29.60;91.90
19172;DHT22;9718;52.200;21.052;2022-08-27T16:13:55;29.60;92.20
19172;DHT22;9718;52.200;21.052;2022-08-27T16:16:29;29.60;92.80
19172;DHT22;9718;52.200;21.052;2022-08-27T16:19:02;29.50;92.50
19172;DHT22;9718;52.200;21.052;2022-08-27T16:21:29;29.40;93.40
19172;DHT22;9718;52.200;21.052;2022-08-27T16:23:57;29.30;93.20
19172;DHT22;9718;52.200;21.052;2022-08-27T16:26:24;29.30;92.90
19172;DHT22;9718;52.200;21.052;2022-08-27T16:28:51;29.20;93.40
19172;DHT22;9718;52.200;21.052;2022-08-27T16:31:18;29.10;93.50
19172;DHT22;9718;52.200;21.052;2022-08-27T16:33:45;29.10;93.50
19172;DHT22;9718;52.200;21.052;2022-08-27T16:36:12;29.00;93.50
19172;DHT22;9718;52.200;21.052;2022-08-27T16:38:40;29.00;93.60
19172;DHT22;9718;52.200;21.052;2022-08-27T16:41:07;28.90;93.70
19172;DHT22;9718;52.200;21.052;2022-08-27T16:43:34;28.80;93.90
19172;DHT22;9718;52.200;21.052;2022-08-27T16:46:01;28.70;94.10
19172;DHT22;9718;52.200;21.052;2022-08-27T16:48:28;28.60;94.70
19172;DHT22;9718;52.200;21.052;2022-08-27T16:51:30;28.50;94.90
19172;DHT22;9718;52.200;21.052;2022-08-27T16:54:02;28.40;95.00
19172;DHT22;9718;52.200;21.052;2022-08-27T16:56:29;28.20;95.40
19172;DHT22;9718;52.200;21.052;2022-08-27T16:59:03;28.10;95.50
19172;DHT22;9718;52.200;21.052;2022-08-27T17:01:30;28.00;95.40
19172;DHT22;9718;52.200;21.052;2022-08-27T17:04:00;27.90;96.40
19172;DHT22;9718;52.200;21.052;2022-08-27T17:06:44;27.70;96.50
19172;DHT22;9718;52.200;21.052;2022-08-27T17:09:12;27.50;97.30
19172;DHT22;9718;52.200;21.052;2022-08-27T17:11:41;27.20;98.00
19172;DHT22;9718;52.200;21.052;2022-08-27T17:14:09;27.00;99.20
19172;DHT22;9718;52.200;21.052;2022-08-27T17:16:38;26.70;99.90
19172;DHT22;9718;52.200;21.052;2022-08-27T17:19:06;26.40;99.90
19172;DHT22;9718;52.200;21.052;2022-08-27T17:21:36;26.20;99.90
19172;DHT22;9718;52.200;21.052;2022-08-27T17:24:03;26.00;99.90
19172;DHT22;9718;52.200;21.052;2022-08-27T17:26:38;25.80;99.90
19172;DHT22;9718;52.200;21.052;2022-08-27T17:29:05;25.60;99.90
19172;DHT22;9718;52.200;21.052;2022-08-27T17:31:35;25.50;99.90
19172;DHT22;9718;52.200;21.052;2022-08-27T17:34:04;25.30;99.90
19172;DHT22;9718;52.200;21.052;2022-08-27T17:36:32;25.10;99.90
19172;DHT22;9718;52.200;21.052;2022-08-27T17:38:59;24.90;99.90
19172;DHT22;9718;52.200;21.052;2022-08-27T17:41:31;24.80;99.90
19172;DHT22;9718;52.200;21.052;2022-08-27T17:44:06;24.70;99.90
19172;DHT22;9718;52.200;21.052;2022-08-27T17:46:35;24.60;99.90